Time;durP1;ratioP1;P1;durP2;ratioP2;P2;SDS_P1;SDS_P2;PMS_P1;PMS_P2;Temp;Humidity;BMP_temperature;BMP_pressure;BME280_temperature;BME280_humidity;BME280_pressure;Samples;Min_cycle;Max_cycle;Signal;HPM_P1;HPM_P2
2023/03/04 00:00:16;;;;;;;3.60;1.55;;;;;;;;;;5034068;28;20095;-56
2023/03/04 00:02:42;;;;;;;3.42;1.50;;;;;;;;;;5033723;28;20017;-55
2023/03/04 00:05:08;;;;;;;3.30;1.40;;;;;;;;;;5033653;28;20037;-55
2023/03/04 00:07:34;;;;;;;2.67;1.60;;;;;;;;;;5033687;28;20371;-55
2023/03/04 00:10:00;;;;;;;2.28;1.55;;;;;;;;;;5033728;28;20087;-55
2023/03/04 00:12:26;;;;;;;3.50;1.48;;;;;;;;;;5034099;28;20483;-57
2023/03/04 00:14:52;;;;;;;4.00;1.40;;;;;;;;;;5033578;28;20018;-52
2023/03/04 00:17:18;;;;;;;3.15;1.38;;;;;;;;;;5033707;28;20360;-56
2023/03/04 00:19:44;;;;;;;3.45;1.40;;;;;;;;;;5033056;28;20148;-56
2023/03/04 00:22:10;;;;;;;2.63;1.50;;;;;;;;;;5033586;28;20075;-57
2023/03/04 00:24:36;;;;;;;5.95;1.80;;;;;;;;;;5033316;28;20547;-56
2023/03/04 00:27:02;;;;;;;6.72;1.35;;;;;;;;;;5033652;28;20107;-57
2023/03/04 00:29:28;;;;;;;1.77;1.13;;;;;;;;;;5033837;28;20021;-55
2023/03/04 00:31:54;;;;;;;2.33;1.17;;;;;;;;;;5033278;28;20025;-54
2023/03/04 00:34:20;;;;;;;3.88;1.60;;;;;;;;;;5033594;28;20036;-57
2023/03/04 00:36:46;;;;;;;5.40;1.65;;;;;;;;;;5033179;28;20061;-57
2023/03/04 00:39:13;;;;;;;4.13;1.63;;;;;;;;;;5033456;28;20029;-56
2023/03/04 00:41:39;;;;;;;6.40;1.30;;;;;;;;;;5033020;28;20100;-57
2023/03/04 00:44:05;;;;;;;3.42;1.70;;;;;;;;;;5033231;28;20089;-57
2023/03/04 00:46:31;;;;;;;3.53;1.45;;;;;;;;;;5032726;28;20079;-55
2023/03/04 00:48:57;;;;;;;4.05;1.50;;;;;;;;;;5033463;28;20033;-53
2023/03/04 00:51:23;;;;;;;3.83;1.48;;;;;;;;;;5033372;28;20071;-57
2023/03/04 00:53:51;;;;;;;5.72;1.65;;;;;;;;;;5032749;28;20040;-55
2023/03/04 00:56:17;;;;;;;3.25;1.30;;;;;;;;;;5033037;28;20026;-54
2023/03/04 00:58:43;;;;;;;3.60;1.48;;;;;;;;;;5032744;28;20102;-56
2023/03/04 01:01:09;;;;;;;3.97;1.92;;;;;;;;;;5032503;28;20486;-56
2023/03/04 01:03:35;;;;;;;4.68;1.67;;;;;;;;;;5032633;28;20038;-53
2023/03/04 01:06:01;;;;;;;5.03;1.65;;;;;;;;;;5032475;28;20512;-57
2023/03/04 01:08:27;;;;;;;4.20;1.63;;;;;;;;;;5033024;28;20126;-55
2023/03/04 01:10:53;;;;;;;5.13;1.20;;;;;;;;;;5032639;28;20030;-59
2023/03/04 01:13:19;;;;;;;3.10;1.45;;;;;;;;;;5032486;28;20109;-56
2023/03/04 01:15:45;;;;;;;4.97;1.50;;;;;;;;;;5032465;28;20105;-57
2023/03/04 01:18:11;;;;;;;5.00;1.58;;;;;;;;;;5032738;28;20053;-56
2023/03/04 01:20:37;;;;;;;3.67;1.70;;;;;;;;;;5032065;28;20033;-54
2023/03/04 01:23:03;;;;;;;2.75;1.05;;;;;;;;;;5032430;28;20036;-57
2023/03/04 01:25:29;;;;;;;5.35;1.63;;;;;;;;;;5032235;28;20033;-56
2023/03/04 01:27:55;;;;;;;3.72;1.65;;;;;;;;;;5032703;28;20109;-54
2023/03/04 01:30:21;;;;;;;4.32;1.67;;;;;;;;;;5032352;28;20026;-53
2023/03/04 01:32:47;;;;;;;3.03;1.45;;;;;;;;;;5032138;28;20028;-56
2023/03/04 01:35:13;;;;;;;4.13;1.38;;;;;;;;;;5031378;28;20508;-54
2023/03/04 01:37:39;;;;;;;4.75;1.65;;;;;;;;;;5032033;28;20028;-57
2023/03/04 01:40:05;;;;;;;3.95;1.25;;;;;;;;;;5032192;28;20104;-55
2023/03/04 01:42:33;;;;;;;5.18;1.30;;;;;;;;;;5031459;28;20029;-57
2023/03/04 01:44:59;;;;;;;5.57;1.65;;;;;;;;;;5032062;28;20095;-53
2023/03/04 01:47:27;;;;;;;6.65;1.60;;;;;;;;;;5032452;28;20110;-54
2023/03/04 01:49:54;;;;;;;4.47;1.30;;;;;;;;;;5032194;28;20040;-58
2023/03/04 01:52:20;;;;;;;3.38;1.30;;;;;;;;;;5031722;28;20433;-55
2023/03/04 01:54:47;;;;;;;4.95;1.50;;;;;;;;;;5031734;28;20474;-55
2023/03/04 01:57:20;;;;;;;4.18;1.38;;;;;;;;;;5031877;28;20029;-57
2023/03/04 01:59:46;;;;;;;3.78;1.35;;;;;;;;;;5031398;28;20083;-56
2023/03/04 02:02:13;;;;;;;3.40;1.30;;;;;;;;;;5031892;28;20025;-57
2023/03/04 02:04:40;;;;;;;3.20;0.95;;;;;;;;;;5031446;28;20037;-53
2023/03/04 02:07:06;;;;;;;3.53;1.30;;;;;;;;;;5031683;28;20394;-55
2023/03/04 02:09:32;;;;;;;4.65;1.33;;;;;;;;;;5031339;28;20049;-57
2023/03/04 02:11:59;;;;;;;3.30;1.33;;;;;;;;;;5031764;28;20026;-54
2023/03/04 02:14:25;;;;;;;4.95;1.27;;;;;;;;;;5031557;28;20484;-57
2023/03/04 02:16:51;;;;;;;4.25;1.10;;;;;;;;;;5031330;28;20033;-57
2023/03/04 02:19:36;;;;;;;4.55;1.88;;;;;;;;;;5031557;28;20108;-57
2023/03/04 02:22:02;;;;;;;5.68;1.48;;;;;;;;;;5031502;28;20034;-58
2023/03/04 02:24:31;;;;;;;4.53;1.13;;;;;;;;;;5031207;28;20037;-57
2023/03/04 02:26:58;;;;;;;2.92;1.08;;;;;;;;;;5031671;28;20036;-56
2023/03/04 02:29:24;;;;;;;5.97;1.20;;;;;;;;;;5031505;28;20065;-58
2023/03/04 02:31:51;;;;;;;7.85;1.30;;;;;;;;;;5031091;28;20060;-56
2023/03/04 02:34:22;;;;;;;3.92;1.52;;;;;;;;;;5031303;28;20025;-57
2023/03/04 02:36:49;;;;;;;2.83;0.90;;;;;;;;;;5031197;28;20463;-58
2023/03/04 02:39:21;;;;;;;2.38;1.10;;;;;;;;;;5030899;28;20025;-58
2023/03/04 02:41:47;;;;;;;4.07;1.17;;;;;;;;;;5030851;28;20026;-56
2023/03/04 02:44:24;;;;;;;3.70;1.13;;;;;;;;;;5031055;28;20112;-57
2023/03/04 02:46:51;;;;;;;2.20;0.95;;;;;;;;;;5030931;28;20147;-56
2023/03/04 02:49:17;;;;;;;3.72;1.17;;;;;;;;;;5031023;28;20509;-54
2023/03/04 02:51:43;;;;;;;4.25;1.17;;;;;;;;;;5031139;28;20367;-54
2023/03/04 02:54:20;;;;;;;4.78;1.25;;;;;;;;;;5030734;28;20032;-56
2023/03/04 02:56:47;;;;;;;3.80;1.33;;;;;;;;;;5030876;28;20033;-57
2023/03/04 02:59:13;;;;;;;4.28;1.30;;;;;;;;;;5031038;28;20030;-55
2023/03/04 03:01:39;;;;;;;4.82;1.55;;;;;;;;;;5030709;28;20082;-56
2023/03/04 03:04:05;;;;;;;4.65;1.92;;;;;;;;;;5030829;28;20060;-54
2023/03/04 03:06:31;;;;;;;4.50;1.40;;;;;;;;;;5030651;28;20470;-52
2023/03/04 03:08:57;;;;;;;3.15;1.13;;;;;;;;;;5030603;28;20075;-56
2023/03/04 03:11:23;;;;;;;4.45;1.45;;;;;;;;;;5030953;28;20022;-55
2023/03/04 03:13:49;;;;;;;4.30;1.65;;;;;;;;;;5030217;28;20064;-55
2023/03/04 03:16:15;;;;;;;5.53;1.95;;;;;;;;;;5030765;28;20037;-56
2023/03/04 03:18:41;;;;;;;3.00;0.98;;;;;;;;;;5030606;28;20061;-57
2023/03/04 03:21:07;;;;;;;2.83;1.05;;;;;;;;;;5030784;28;20371;-55
2023/03/04 03:23:33;;;;;;;4.50;1.30;;;;;;;;;;5030270;28;20033;-56
2023/03/04 03:25:59;;;;;;;3.75;0.95;;;;;;;;;;5030810;28;20032;-58
2023/03/04 03:28:25;;;;;;;2.70;1.02;;;;;;;;;;5030655;28;20052;-57
2023/03/04 03:30:51;;;;;;;3.13;1.27;;;;;;;;;;5030289;28;20022;-57
2023/03/04 03:33:17;;;;;;;3.45;1.05;;;;;;;;;;5030570;28;20021;-57
2023/03/04 03:35:43;;;;;;;3.45;0.95;;;;;;;;;;5029050;28;20053;-58
2023/03/04 03:38:09;;;;;;;5.60;1.17;;;;;;;;;;5030604;28;20553;-57
2023/03/04 03:40:35;;;;;;;4.63;1.45;;;;;;;;;;5029952;28;20034;-56
2023/03/04 03:43:01;;;;;;;5.18;1.58;;;;;;;;;;5030494;28;20490;-56
2023/03/04 03:45:27;;;;;;;4.05;1.42;;;;;;;;;;5030788;28;20056;-57
2023/03/04 03:47:53;;;;;;;6.15;1.55;;;;;;;;;;5030911;28;20604;-54
2023/03/04 03:50:19;;;;;;;5.68;1.70;;;;;;;;;;5030506;28;20064;-57
2023/03/04 03:52:45;;;;;;;6.35;1.63;;;;;;;;;;5030275;28;20033;-53
2023/03/04 03:55:11;;;;;;;3.80;1.30;;;;;;;;;;5030068;28;20103;-58
2023/03/04 03:57:37;;;;;;;3.10;1.33;;;;;;;;;;5031231;28;20502;-58
2023/03/04 04:00:04;;;;;;;3.45;1.15;;;;;;;;;;5034004;28;20032;-57
2023/03/04 04:02:30;;;;;;;3.17;1.13;;;;;;;;;;5033757;28;20408;-56
2023/03/04 04:04:56;;;;;;;4.78;1.20;;;;;;;;;;5033968;28;20029;-57
2023/03/04 04:07:22;;;;;;;4.65;1.27;;;;;;;;;;5033936;28;20041;-58
2023/03/04 04:09:48;;;;;;;4.57;1.42;;;;;;;;;;5033271;28;20620;-53
2023/03/04 04:12:15;;;;;;;2.90;0.98;;;;;;;;;;5033791;28;20033;-58
2023/03/04 04:14:41;;;;;;;4.28;1.23;;;;;;;;;;5033365;28;20465;-57
2023/03/04 04:17:09;;;;;;;3.00;1.10;;;;;;;;;;5033679;28;20071;-57
2023/03/04 04:19:35;;;;;;;5.78;2.08;;;;;;;;;;5033551;28;20334;-55
2023/03/04 04:22:02;;;;;;;3.88;1.13;;;;;;;;;;5033839;28;20112;-58
2023/03/04 04:24:28;;;;;;;3.72;1.00;;;;;;;;;;5033187;28;20037;-55
2023/03/04 04:26:54;;;;;;;5.28;1.60;;;;;;;;;;5034006;28;20025;-56
2023/03/04 04:29:21;;;;;;;4.70;1.15;;;;;;;;;;5033521;28;20079;-57
2023/03/04 04:31:47;;;;;;;2.88;1.05;;;;;;;;;;5033300;28;20045;-58
2023/03/04 04:34:13;;;;;;;4.82;1.20;;;;;;;;;;5033591;28;20390;-58
2023/03/04 04:36:40;;;;;;;4.07;1.30;;;;;;;;;;5033331;28;20061;-57
2023/03/04 04:39:06;;;;;;;3.10;1.33;;;;;;;;;;5033296;28;20428;-57
2023/03/04 04:41:35;;;;;;;4.50;1.10;;;;;;;;;;5033300;28;20474;-58
2023/03/04 04:44:01;;;;;;;3.47;1.10;;;;;;;;;;5033332;28;20034;-57
2023/03/04 04:46:28;;;;;;;3.08;1.48;;;;;;;;;;5033823;28;20022;-57
2023/03/04 04:48:54;;;;;;;4.65;1.02;;;;;;;;;;5033437;28;20104;-53
2023/03/04 04:51:20;;;;;;;4.15;1.23;;;;;;;;;;5033040;28;20105;-56
2023/03/04 04:53:47;;;;;;;4.45;1.40;;;;;;;;;;5032658;28;20025;-55
2023/03/04 04:56:17;;;;;;;3.13;1.20;;;;;;;;;;5033068;28;20021;-54
2023/03/04 04:58:43;;;;;;;4.10;1.40;;;;;;;;;;5032752;28;20032;-55
2023/03/04 05:01:09;;;;;;;4.28;1.35;;;;;;;;;;5032890;28;20489;-54
2023/03/04 05:03:37;;;;;;;3.67;1.42;;;;;;;;;;5032581;28;20045;-56
2023/03/04 05:06:03;;;;;;;2.83;1.00;;;;;;;;;;5032841;28;20025;-54
2023/03/04 05:08:29;;;;;;;4.25;1.00;;;;;;;;;;5031514;28;20116;-56
2023/03/04 05:10:55;;;;;;;3.75;1.10;;;;;;;;;;5032470;28;20104;-56
2023/03/04 05:13:21;;;;;;;3.08;0.93;;;;;;;;;;5032560;28;20033;-53
2023/03/04 05:15:47;;;;;;;4.32;1.00;;;;;;;;;;5032291;28;20026;-53
2023/03/04 05:18:13;;;;;;;5.35;1.30;;;;;;;;;;5032601;28;20026;-56
2023/03/04 05:20:39;;;;;;;3.03;1.02;;;;;;;;;;5032280;28;20026;-54
2023/03/04 05:23:05;;;;;;;4.30;1.45;;;;;;;;;;5032068;28;20026;-55
2023/03/04 05:25:31;;;;;;;4.50;1.23;;;;;;;;;;5032169;28;20036;-58
2023/03/04 05:27:57;;;;;;;2.67;1.20;;;;;;;;;;5032655;28;20383;-53
2023/03/04 05:30:23;;;;;;;5.45;1.45;;;;;;;;;;5032629;28;20033;-53
2023/03/04 05:32:49;;;;;;;4.53;1.20;;;;;;;;;;5031839;28;20494;-57
2023/03/04 05:35:15;;;;;;;3.83;1.13;;;;;;;;;;5032234;28;20024;-56
2023/03/04 05:37:41;;;;;;;3.50;0.90;;;;;;;;;;5031810;28;20138;-57
2023/03/04 05:40:08;;;;;;;3.65;1.13;;;;;;;;;;5032170;28;20022;-57
2023/03/04 05:42:34;;;;;;;3.40;0.95;;;;;;;;;;5031979;28;20025;-58
2023/03/04 05:45:00;;;;;;;4.32;1.00;;;;;;;;;;5031870;28;20057;-55
2023/03/04 05:47:26;;;;;;;3.80;1.08;;;;;;;;;;5032082;28;20025;-58
2023/03/04 05:49:53;;;;;;;4.05;1.38;;;;;;;;;;5031710;28;20440;-58
2023/03/04 05:52:19;;;;;;;4.63;1.10;;;;;;;;;;5031811;28;20030;-57
2023/03/04 05:54:45;;;;;;;4.03;1.13;;;;;;;;;;5031063;28;20112;-57
2023/03/04 05:57:11;;;;;;;4.75;1.20;;;;;;;;;;5031790;28;20104;-55
2023/03/04 05:59:37;;;;;;;5.45;1.35;;;;;;;;;;5031623;28;20026;-56
2023/03/04 06:02:03;;;;;;;3.08;1.10;;;;;;;;;;5031369;28;20104;-55
2023/03/04 06:04:29;;;;;;;5.68;1.27;;;;;;;;;;5031283;28;20037;-56
2023/03/04 06:06:55;;;;;;;4.32;0.85;;;;;;;;;;5031944;28;20032;-55
2023/03/04 06:09:21;;;;;;;2.80;0.93;;;;;;;;;;5031393;28;20033;-58
2023/03/04 06:11:47;;;;;;;5.22;1.15;;;;;;;;;;5031438;28;20071;-56
2023/03/04 06:14:13;;;;;;;3.78;1.00;;;;;;;;;;5031528;28;20022;-57
2023/03/04 06:16:39;;;;;;;2.90;1.10;;;;;;;;;;5030634;28;20521;-56
2023/03/04 06:19:05;;;;;;;3.95;1.00;;;;;;;;;;5031522;28;20136;-56
2023/03/04 06:21:31;;;;;;;4.43;1.20;;;;;;;;;;5030950;28;20025;-56
2023/03/04 06:23:56;;;;;;;2.28;0.85;;;;;;;;;;5031366;28;20524;-57
2023/03/04 06:26:22;;;;;;;4.45;1.05;;;;;;;;;;5031310;28;20064;-57
2023/03/04 06:28:48;;;;;;;3.05;0.90;;;;;;;;;;5031026;28;20505;-56
2023/03/04 06:31:14;;;;;;;3.95;1.15;;;;;;;;;;5030955;28;20025;-57
2023/03/04 06:33:40;;;;;;;3.55;1.02;;;;;;;;;;5031065;28;20057;-56
2023/03/04 06:36:06;;;;;;;3.67;1.00;;;;;;;;;;5030976;28;20030;-58
2023/03/04 06:38:32;;;;;;;3.60;0.93;;;;;;;;;;5031034;28;20485;-58
2023/03/04 06:41:05;;;;;;;6.00;1.00;;;;;;;;;;5030676;28;20040;-54
2023/03/04 06:43:31;;;;;;;3.83;1.00;;;;;;;;;;5030606;28;20047;-58
2023/03/04 06:45:57;;;;;;;4.80;1.10;;;;;;;;;;5031328;28;20021;-55
2023/03/04 06:48:23;;;;;;;4.10;1.25;;;;;;;;;;5031324;28;20044;-56
2023/03/04 06:50:49;;;;;;;3.30;0.98;;;;;;;;;;5030858;28;20025;-56
2023/03/04 06:53:15;;;;;;;3.10;1.13;;;;;;;;;;5031033;28;20502;-57
2023/03/04 06:55:41;;;;;;;5.45;1.30;;;;;;;;;;5030077;28;20105;-57
2023/03/04 06:58:07;;;;;;;3.92;1.30;;;;;;;;;;5031108;28;20076;-56
2023/03/04 07:00:33;;;;;;;3.17;1.10;;;;;;;;;;5030800;28;20033;-57
2023/03/04 07:02:59;;;;;;;3.30;1.00;;;;;;;;;;5030887;28;20064;-58
2023/03/04 07:05:25;;;;;;;3.80;0.70;;;;;;;;;;5031207;28;20060;-55
2023/03/04 07:07:51;;;;;;;6.70;1.45;;;;;;;;;;5030915;28;20029;-56
2023/03/04 07:10:18;;;;;;;4.15;1.30;;;;;;;;;;5029980;28;20135;-52
2023/03/04 07:12:44;;;;;;;6.30;1.67;;;;;;;;;;5030054;28;20056;-58
2023/03/04 07:15:10;;;;;;;3.30;1.02;;;;;;;;;;5030890;28;20026;-58
2023/03/04 07:17:36;;;;;;;8.65;1.42;;;;;;;;;;5030646;28;20567;-59
2023/03/04 07:20:02;;;;;;;3.85;1.27;;;;;;;;;;5030776;28;20110;-58
2023/03/04 07:22:28;;;;;;;5.93;1.17;;;;;;;;;;5030909;28;20374;-58
2023/03/04 07:24:54;;;;;;;9.90;1.25;;;;;;;;;;5031037;28;20033;-58
2023/03/04 07:27:20;;;;;;;3.70;1.10;;;;;;;;;;5030425;28;20026;-55
2023/03/04 07:29:46;;;;;;;5.68;1.02;;;;;;;;;;5030584;28;20028;-56
2023/03/04 07:32:12;;;;;;;4.15;1.10;;;;;;;;;;5031103;28;20018;-57
2023/03/04 07:34:38;;;;;;;4.22;1.38;;;;;;;;;;5032737;28;20037;-57
2023/03/04 07:37:04;;;;;;;5.35;1.27;;;;;;;;;;5046266;28;20435;-59
2023/03/04 07:39:30;;;;;;;4.05;1.30;;;;;;;;;;5033026;28;20041;-58
2023/03/04 07:41:56;;;;;;;3.70;1.05;;;;;;;;;;5036454;28;20060;-63
2023/03/04 07:44:22;;;;;;;5.97;1.20;;;;;;;;;;5054319;28;20044;-56
2023/03/04 07:46:48;;;;;;;5.00;1.10;;;;;;;;;;5044784;28;20509;-57
2023/03/04 07:49:14;;;;;;;5.35;1.17;;;;;;;;;;5034276;28;20032;-57
2023/03/04 07:51:40;;;;;;;11.65;1.45;;;;;;;;;;5034006;28;20447;-59
2023/03/04 07:54:06;;;;;;;5.72;1.48;;;;;;;;;;5034198;28;20060;-58
2023/03/04 07:56:33;;;;;;;9.63;1.15;;;;;;;;;;5033235;28;20076;-58
2023/03/04 07:58:59;;;;;;;8.00;1.13;;;;;;;;;;5033725;28;20044;-59
2023/03/04 08:01:33;;;;;;;5.50;1.30;;;;;;;;;;5032534;28;20501;-59
2023/03/04 08:03:59;;;;;;;6.50;1.08;;;;;;;;;;5033586;28;20073;-60
2023/03/04 08:06:25;;;;;;;6.13;1.42;;;;;;;;;;5034156;28;20079;-59
2023/03/04 08:08:55;;;;;;;7.75;1.35;;;;;;;;;;5033680;28;20064;-60
2023/03/04 08:11:21;;;;;;;7.40;1.48;;;;;;;;;;5033683;28;20112;-59
2023/03/04 08:13:48;;;;;;;3.88;1.40;;;;;;;;;;5032857;28;20104;-59
2023/03/04 08:16:15;;;;;;;4.20;1.13;;;;;;;;;;5033463;28;20057;-59
2023/03/04 08:18:42;;;;;;;5.50;1.42;;;;;;;;;;5033217;28;20485;-59
2023/03/04 08:21:09;;;;;;;6.45;1.75;;;;;;;;;;5033474;28;20060;-60
2023/03/04 08:23:35;;;;;;;10.73;1.83;;;;;;;;;;5032989;28;20041;-59
2023/03/04 08:26:05;;;;;;;6.28;1.30;;;;;;;;;;5033067;28;20025;-59
2023/03/04 08:28:31;;;;;;;3.97;1.30;;;;;;;;;;5032327;28;20095;-60
2023/03/04 08:30:57;;;;;;;4.53;1.40;;;;;;;;;;5040299;28;20025;-60
2023/03/04 08:33:23;;;;;;;6.15;1.70;;;;;;;;;;5053626;28;20028;-59
2023/03/04 08:35:49;;;;;;;6.38;1.95;;;;;;;;;;5039149;28;20022;-60
2023/03/04 08:38:15;;;;;;;5.85;1.75;;;;;;;;;;5033373;28;20029;-60
2023/03/04 08:40:41;;;;;;;4.97;1.50;;;;;;;;;;5032881;28;20108;-60
2023/03/04 08:43:07;;;;;;;7.82;2.00;;;;;;;;;;5032750;28;20398;-59
2023/03/04 08:45:33;;;;;;;7.03;1.67;;;;;;;;;;5033171;28;20381;-60
2023/03/04 08:47:59;;;;;;;11.20;2.20;;;;;;;;;;5032302;28;20025;-60
2023/03/04 08:50:26;;;;;;;6.13;1.70;;;;;;;;;;5033217;28;20052;-59
2023/03/04 08:52:52;;;;;;;8.35;1.52;;;;;;;;;;5032206;28;20383;-60
2023/03/04 08:55:19;;;;;;;4.80;2.13;;;;;;;;;;5032315;28;20034;-59
2023/03/04 08:57:45;;;;;;;8.57;1.83;;;;;;;;;;5031753;28;20486;-60
2023/03/04 09:00:11;;;;;;;5.68;1.35;;;;;;;;;;5033032;28;20029;-60
2023/03/04 09:02:37;;;;;;;7.43;1.80;;;;;;;;;;5032923;28;20029;-60
2023/03/04 09:05:03;;;;;;;11.43;2.00;;;;;;;;;;5032837;28;20483;-60
2023/03/04 09:07:29;;;;;;;7.70;2.03;;;;;;;;;;5032798;28;20028;-60
2023/03/04 09:09:55;;;;;;;7.78;1.75;;;;;;;;;;5033177;28;20041;-60
2023/03/04 09:12:21;;;;;;;6.03;1.80;;;;;;;;;;5032919;28;20108;-60
2023/03/04 09:14:47;;;;;;;5.97;1.70;;;;;;;;;;5032027;28;20041;-60
2023/03/04 09:17:13;;;;;;;9.13;1.80;;;;;;;;;;5032779;28;20563;-60
2023/03/04 09:19:39;;;;;;;5.43;2.10;;;;;;;;;;5032591;28;20025;-60
2023/03/04 09:22:05;;;;;;;5.97;1.60;;;;;;;;;;5032856;28;20116;-60
2023/03/04 09:24:31;;;;;;;4.80;1.98;;;;;;;;;;5031809;28;20498;-60
2023/03/04 09:26:57;;;;;;;8.77;1.67;;;;;;;;;;5033076;28;20030;-59
2023/03/04 09:29:23;;;;;;;4.07;1.50;;;;;;;;;;5032360;28;20505;-60
2023/03/04 09:31:49;;;;;;;5.43;1.42;;;;;;;;;;5031927;28;20036;-61
2023/03/04 09:34:16;;;;;;;6.80;2.08;;;;;;;;;;5032216;28;20029;-61
2023/03/04 09:36:42;;;;;;;5.13;2.03;;;;;;;;;;5032268;28;20029;-61
2023/03/04 09:39:08;;;;;;;3.75;1.48;;;;;;;;;;5032390;28;20040;-60
2023/03/04 09:41:37;;;;;;;6.13;1.50;;;;;;;;;;5031543;28;20048;-61
2023/03/04 09:44:10;;;;;;;5.75;1.20;;;;;;;;;;5032259;28;20039;-61
2023/03/04 09:46:38;;;;;;;5.78;1.92;;;;;;;;;;5031993;28;20026;-61
2023/03/04 09:49:04;;;;;;;7.07;1.90;;;;;;;;;;5031582;28;20028;-60
2023/03/04 09:51:56;;;;;;;4.55;1.75;;;;;;;;;;5031473;28;20080;-61
2023/03/04 09:54:29;;;;;;;4.07;1.52;;;;;;;;;;5030817;28;20088;-61
2023/03/04 09:56:58;;;;;;;4.93;1.65;;;;;;;;;;5031896;28;20026;-61
2023/03/04 09:59:34;;;;;;;5.25;1.55;;;;;;;;;;5032210;28;20029;-61
2023/03/04 10:02:12;;;;;;;3.95;1.33;;;;;;;;;;5034429;28;20036;-61
2023/03/04 10:04:41;;;;;;;4.57;1.30;;;;;;;;;;5036934;28;20474;-60
2023/03/04 10:07:13;;;;;;;5.68;1.52;;;;;;;;;;5031562;28;20335;-61
2023/03/04 10:09:39;;;;;;;4.15;1.40;;;;;;;;;;5031109;28;20513;-61
2023/03/04 10:12:07;;;;;;;6.05;1.90;;;;;;;;;;5031334;28;20025;-61
2023/03/04 10:14:32;;;;;;;6.20;1.60;;;;;;;;;;5027736;28;20389;-59
2023/03/04 10:17:03;;;;;;;5.47;1.20;;;;;;;;;;5051237;28;20025;-59
2023/03/04 10:19:38;;;;;;;4.28;1.40;;;;;;;;;;5042660;28;20081;-61
2023/03/04 10:22:14;;;;;;;5.25;1.48;;;;;;;;;;5030857;28;20025;-61
2023/03/04 10:24:40;;;;;;;6.03;1.48;;;;;;;;;;5042618;28;20394;-62
2023/03/04 10:27:10;;;;;;;6.78;2.10;;;;;;;;;;5046407;28;20024;-61
2023/03/04 10:29:36;;;;;;;4.78;1.50;;;;;;;;;;5031110;28;20037;-61
2023/03/04 10:32:02;;;;;;;4.03;1.40;;;;;;;;;;5030309;28;20097;-60
2023/03/04 10:34:28;;;;;;;5.18;1.80;;;;;;;;;;5046547;28;20056;-60
2023/03/04 10:37:05;;;;;;;5.75;1.58;;;;;;;;;;5033974;28;20545;-60
2023/03/04 10:39:33;;;;;;;7.38;1.60;;;;;;;;;;5039920;28;20041;-59
2023/03/04 10:42:01;;;;;;;6.88;1.50;;;;;;;;;;5029893;28;20013;-59
2023/03/04 10:44:27;;;;;;;3.78;1.52;;;;;;;;;;5033593;28;20040;-59
2023/03/04 10:46:54;;;;;;;7.18;1.48;;;;;;;;;;5033385;28;20052;-62
2023/03/04 10:49:21;;;;;;;5.25;1.15;;;;;;;;;;5027735;28;20504;-60
2023/03/04 10:51:49;;;;;;;4.20;1.10;;;;;;;;;;5029507;28;20030;-60
2023/03/04 10:54:24;;;;;;;7.15;1.65;;;;;;;;;;5030932;28;20060;-60
2023/03/04 10:56:54;;;;;;;5.20;1.10;;;;;;;;;;5030698;28;20040;-60
2023/03/04 10:59:34;;;;;;;8.70;2.50;;;;;;;;;;5030457;28;20083;-60
2023/03/04 11:02:01;;;;;;;7.05;1.40;;;;;;;;;;5030854;28;20390;-60
2023/03/04 11:04:32;;;;;;;5.82;1.52;;;;;;;;;;5031135;28;20030;-60
2023/03/04 11:06:58;;;;;;;4.97;1.52;;;;;;;;;;5031053;28;20075;-60
2023/03/04 11:09:25;;;;;;;6.43;1.42;;;;;;;;;;5035267;28;20034;-60
2023/03/04 11:11:52;;;;;;;3.90;1.20;;;;;;;;;;5034838;28;20025;-60
2023/03/04 11:14:21;;;;;;;2.90;0.93;;;;;;;;;;5033220;28;20152;-60
2023/03/04 11:16:58;;;;;;;6.15;1.10;;;;;;;;;;5036290;28;20099;-60
2023/03/04 11:19:27;;;;;;;11.68;1.40;;;;;;;;;;5044079;28;20056;-60
2023/03/04 11:21:53;;;;;;;4.40;1.08;;;;;;;;;;5034678;28;20024;-60
2023/03/04 11:24:24;;;;;;;7.25;1.67;;;;;;;;;;5034545;28;20168;-60
2023/03/04 11:27:11;;;;;;;4.47;1.65;;;;;;;;;;5034496;28;20018;-60
2023/03/04 11:29:57;;;;;;;7.95;1.50;;;;;;;;;;5030037;28;20050;-61
2023/03/04 11:32:33;;;;;;;8.63;1.20;;;;;;;;;;5033313;28;20170;-60
2023/03/04 11:35:18;;;;;;;6.18;1.48;;;;;;;;;;5033138;28;20025;-60
2023/03/04 11:37:50;;;;;;;5.38;1.45;;;;;;;;;;5031930;28;20033;-60
2023/03/04 11:40:21;;;;;;;7.68;1.33;;;;;;;;;;5034459;28;20385;-60
2023/03/04 11:42:51;;;;;;;7.45;1.13;;;;;;;;;;5032316;28;20038;-60
2023/03/04 11:45:21;;;;;;;5.32;1.27;;;;;;;;;;5036098;28;20037;-60
2023/03/04 11:47:56;;;;;;;5.75;1.58;;;;;;;;;;5032569;28;20030;-60
2023/03/04 11:50:31;;;;;;;3.08;0.90;;;;;;;;;;5033476;28;20524;-60
2023/03/04 11:53:27;;;;;;;5.70;1.50;;;;;;;;;;5033038;28;20111;-61
2023/03/04 11:56:03;;;;;;;7.43;1.60;;;;;;;;;;5032301;28;20033;-61
2023/03/04 11:58:44;;;;;;;7.10;1.60;;;;;;;;;;5031910;28;20029;-61
2023/03/04 12:01:14;;;;;;;4.55;1.40;;;;;;;;;;5031836;28;20083;-60
2023/03/04 12:03:56;;;;;;;6.57;1.13;;;;;;;;;;5031768;28;20130;-60
2023/03/04 12:06:31;;;;;;;6.22;1.10;;;;;;;;;;5031740;28;20083;-61
2023/03/04 12:08:57;;;;;;;;;;;;;;;;;;5046015;28;20091;-60
2023/03/04 12:11:26;;;;;;;4.50;1.38;;;;;;;;;;5032747;28;20560;-61
2023/03/04 12:14:05;;;;;;;4.68;1.33;;;;;;;;;;5032059;28;20043;-60
2023/03/04 12:16:46;;;;;;;5.00;1.20;;;;;;;;;;5032187;28;20029;-66
2023/03/04 12:19:27;;;;;;;6.72;1.05;;;;;;;;;;5032797;28;20055;-66
2023/03/04 12:22:05;;;;;;;5.35;2.08;;;;;;;;;;5033402;28;20417;-60
2023/03/04 12:24:31;;;;;;;5.20;1.58;;;;;;;;;;5033226;28;20041;-62
2023/03/04 12:27:17;;;;;;;7.15;1.50;;;;;;;;;;5033943;28;20052;-60
2023/03/04 12:29:58;;;;;;;7.15;1.65;;;;;;;;;;5032037;28;20482;-67
2023/03/04 12:32:24;;;;;;;5.28;1.35;;;;;;;;;;5033514;28;20026;-62
2023/03/04 12:35:04;;;;;;;7.10;1.30;;;;;;;;;;5033226;28;20033;-60
2023/03/04 12:37:32;;;;;;;5.47;1.45;;;;;;;;;;5032321;28;20516;-61
2023/03/04 12:40:15;;;;;;;5.85;1.15;;;;;;;;;;5033013;28;20033;-60
2023/03/04 12:42:44;;;;;;;4.55;1.40;;;;;;;;;;5033248;28;20017;-60
2023/03/04 12:45:19;;;;;;;6.88;1.75;;;;;;;;;;5031851;28;20043;-60
2023/03/04 12:48:06;;;;;;;4.88;1.33;;;;;;;;;;5033172;28;20053;-61
2023/03/04 12:50:50;;;;;;;3.35;1.10;;;;;;;;;;5032046;28;20049;-61
2023/03/04 12:53:20;;;;;;;4.72;1.40;;;;;;;;;;5032801;28;20029;-61
2023/03/04 12:55:47;;;;;;;4.82;1.45;;;;;;;;;;5031914;28;20489;-62
2023/03/04 12:58:15;;;;;;;7.78;1.17;;;;;;;;;;5033044;28;20029;-61
2023/03/04 13:00:48;;;;;;;2.97;1.08;;;;;;;;;;5030922;28;20025;-60
2023/03/04 13:03:19;;;;;;;3.42;1.30;;;;;;;;;;5031315;28;20032;-63
2023/03/04 13:05:57;;;;;;;5.38;1.45;;;;;;;;;;5031179;28;20096;-62
2023/03/04 13:08:32;;;;;;;4.55;1.10;;;;;;;;;;5012899;28;20445;-61
2023/03/04 13:11:02;;;;;;;7.07;1.10;;;;;;;;;;5013408;28;20026;-59
2023/03/04 13:13:36;;;;;;;3.88;1.25;;;;;;;;;;5012934;28;20022;-60
2023/03/04 13:16:11;;;;;;;7.45;1.20;;;;;;;;;;5032679;28;20022;-61
2023/03/04 13:18:38;;;;;;;2.43;1.10;;;;;;;;;;5031887;28;20029;-61
2023/03/04 13:21:24;;;;;;;4.88;1.30;;;;;;;;;;5012624;28;20486;-61
2023/03/04 13:23:51;;;;;;;2.75;1.02;;;;;;;;;;5012347;28;20485;-62
2023/03/04 13:26:17;;;;;;;5.30;1.40;;;;;;;;;;5019022;28;20112;-62
2023/03/04 13:28:43;;;;;;;4.78;1.20;;;;;;;;;;5030431;28;20429;-64
2023/03/04 13:31:09;;;;;;;3.97;0.93;;;;;;;;;;5029929;28;20043;-62
2023/03/04 13:33:35;;;;;;;3.00;1.02;;;;;;;;;;5030443;28;20481;-61
2023/03/04 13:36:04;;;;;;;2.00;0.80;;;;;;;;;;5030783;28;20029;-63
2023/03/04 13:38:30;;;;;;;6.38;1.45;;;;;;;;;;5029215;28;20460;-66
2023/03/04 13:41:14;;;;;;;6.80;1.38;;;;;;;;;;5030064;28;20053;-68
2023/03/04 13:43:47;;;;;;;5.35;1.60;;;;;;;;;;5030615;28;20028;-66
2023/03/04 13:46:20;;;;;;;7.07;1.83;;;;;;;;;;5031203;28;20489;-66
2023/03/04 13:48:49;;;;;;;4.18;1.42;;;;;;;;;;5029089;28;20113;-69
2023/03/04 13:51:30;;;;;;;3.38;1.42;;;;;;;;;;5032169;28;20104;-69
2023/03/04 13:53:59;;;;;;;4.45;1.75;;;;;;;;;;5032269;28;20486;-69
2023/03/04 13:56:35;;;;;;;5.10;1.60;;;;;;;;;;5031890;28;20116;-68
2023/03/04 13:59:07;;;;;;;3.45;1.50;;;;;;;;;;5031616;28;20056;-63
2023/03/04 14:01:48;;;;;;;5.60;1.48;;;;;;;;;;5031006;28;20025;-66
2023/03/04 14:04:17;;;;;;;3.55;1.40;;;;;;;;;;5030496;28;20057;-69
2023/03/04 14:06:45;;;;;;;5.75;1.23;;;;;;;;;;5029599;28;20113;-67
2023/03/04 14:09:20;;;;;;;3.55;1.92;;;;;;;;;;5033542;28;20494;-68
2023/03/04 14:11:46;;;;;;;5.32;1.75;;;;;;;;;;5027962;28;20084;-62
2023/03/04 14:14:15;;;;;;;4.05;1.35;;;;;;;;;;5033898;28;20105;-65
2023/03/04 14:16:49;;;;;;;8.52;1.58;;;;;;;;;;5023226;28;20390;-68
2023/03/04 14:19:26;;;;;;;5.45;1.45;;;;;;;;;;5022609;28;20080;-59
2023/03/04 14:21:52;;;;;;;6.95;1.60;;;;;;;;;;5018170;28;20053;-61
2023/03/04 14:24:19;;;;;;;3.17;1.20;;;;;;;;;;5018441;28;20040;-60
2023/03/04 14:26:46;;;;;;;4.43;1.20;;;;;;;;;;5027789;28;20023;-60
2023/03/04 14:29:21;;;;;;;3.47;1.10;;;;;;;;;;5020197;28;20026;-64
2023/03/04 14:31:47;;;;;;;6.47;1.33;;;;;;;;;;5020617;28;20013;-64
2023/03/04 14:34:17;;;;;;;5.35;1.63;;;;;;;;;;5019203;28;20033;-61
2023/03/04 14:36:43;;;;;;;2.78;1.20;;;;;;;;;;5024041;28;20367;-62
2023/03/04 14:39:14;;;;;;;5.28;1.00;;;;;;;;;;5024376;28;20048;-68
2023/03/04 14:41:42;;;;;;;3.38;1.05;;;;;;;;;;5026565;28;20021;-62
2023/03/04 14:44:14;;;;;;;3.33;0.90;;;;;;;;;;5026264;28;20037;-63
2023/03/04 14:46:45;;;;;;;4.20;1.00;;;;;;;;;;5025058;28;20053;-61
2023/03/04 14:49:12;;;;;;;5.65;1.02;;;;;;;;;;5031173;28;20055;-59